sensor_id;sensor_type;location;lat;lon;timestamp;P1;durP1;ratioP1;P2;durP2;ratioP2
13571;SDS011;6857;53.484;10.216;2022-12-26T00:01:27;15.47;;;8.47;;
13571;SDS011;6857;53.484;10.216;2022-12-26T00:03:54;16.23;;;9.37;;
13571;SDS011;6857;53.484;10.216;2022-12-26T00:06:21;13.97;;;7.87;;
13571;SDS011;6857;53.484;10.216;2022-12-26T00:08:47;15.83;;;8.27;;
13571;SDS011;6857;53.484;10.216;2022-12-26T00:11:13;15.70;;;8.73;;
13571;SDS011;6857;53.484;10.216;2022-12-26T00:13:39;17.60;;;9.40;;
13571;SDS011;6857;53.484;10.216;2022-12-26T00:16:06;23.13;;;8.90;;
13571;SDS011;6857;53.484;10.216;2022-12-26T00:18:32;19.90;;;9.23;;
13571;SDS011;6857;53.484;10.216;2022-12-26T00:20:58;18.73;;;8.83;;
13571;SDS011;6857;53.484;10.216;2022-12-26T00:23:24;18.60;;;8.43;;
13571;SDS011;6857;53.484;10.216;2022-12-26T00:25:50;16.80;;;8.20;;
13571;SDS011;6857;53.484;10.216;2022-12-26T00:28:16;20.37;;;8.40;;
13571;SDS011;6857;53.484;10.216;2022-12-26T00:30:42;21.70;;;8.43;;
13571;SDS011;6857;53.484;10.216;2022-12-26T00:33:08;24.47;;;8.63;;
13571;SDS011;6857;53.484;10.216;2022-12-26T00:35:34;21.53;;;9.73;;
13571;SDS011;6857;53.484;10.216;2022-12-26T00:38:00;26.37;;;10.13;;
13571;SDS011;6857;53.484;10.216;2022-12-26T00:40:26;26.30;;;10.40;;
13571;SDS011;6857;53.484;10.216;2022-12-26T00:42:52;31.23;;;9.50;;
13571;SDS011;6857;53.484;10.216;2022-12-26T00:45:18;24.43;;;9.27;;
13571;SDS011;6857;53.484;10.216;2022-12-26T00:47:43;19.17;;;8.77;;
13571;SDS011;6857;53.484;10.216;2022-12-26T00:50:09;23.63;;;8.80;;
13571;SDS011;6857;53.484;10.216;2022-12-26T00:52:35;21.30;;;8.53;;
13571;SDS011;6857;53.484;10.216;2022-12-26T00:55:01;21.63;;;9.67;;
13571;SDS011;6857;53.484;10.216;2022-12-26T00:57:27;30.17;;;10.00;;
13571;SDS011;6857;53.484;10.216;2022-12-26T00:59:53;23.23;;;8.87;;
13571;SDS011;6857;53.484;10.216;2022-12-26T01:02:20;23.43;;;9.43;;
13571;SDS011;6857;53.484;10.216;2022-12-26T01:05:01;26.30;;;9.80;;
13571;SDS011;6857;53.484;10.216;2022-12-26T01:07:27;18.80;;;9.27;;
13571;SDS011;6857;53.484;10.216;2022-12-26T01:09:53;24.50;;;9.43;;
13571;SDS011;6857;53.484;10.216;2022-12-26T01:12:19;25.27;;;9.57;;
13571;SDS011;6857;53.484;10.216;2022-12-26T01:14:45;27.37;;;9.47;;
13571;SDS011;6857;53.484;10.216;2022-12-26T01:17:11;27.47;;;11.13;;
13571;SDS011;6857;53.484;10.216;2022-12-26T01:19:37;26.90;;;10.90;;
13571;SDS011;6857;53.484;10.216;2022-12-26T01:22:03;26.63;;;10.77;;
13571;SDS011;6857;53.484;10.216;2022-12-26T01:24:29;33.07;;;11.03;;
13571;SDS011;6857;53.484;10.216;2022-12-26T01:26:55;25.63;;;11.17;;
13571;SDS011;6857;53.484;10.216;2022-12-26T01:29:21;29.63;;;11.87;;
13571;SDS011;6857;53.484;10.216;2022-12-26T01:31:47;23.93;;;10.67;;
13571;SDS011;6857;53.484;10.216;2022-12-26T01:34:13;26.70;;;10.70;;
13571;SDS011;6857;53.484;10.216;2022-12-26T01:36:39;36.37;;;11.67;;
13571;SDS011;6857;53.484;10.216;2022-12-26T01:39:04;34.80;;;11.97;;
13571;SDS011;6857;53.484;10.216;2022-12-26T01:41:30;31.60;;;11.07;;
13571;SDS011;6857;53.484;10.216;2022-12-26T01:44:01;34.07;;;11.37;;
13571;SDS011;6857;53.484;10.216;2022-12-26T01:46:37;37.73;;;11.20;;
13571;SDS011;6857;53.484;10.216;2022-12-26T01:49:14;30.93;;;12.30;;
13571;SDS011;6857;53.484;10.216;2022-12-26T01:51:43;29.50;;;10.37;;
13571;SDS011;6857;53.484;10.216;2022-12-26T01:54:10;33.90;;;11.83;;
13571;SDS011;6857;53.484;10.216;2022-12-26T01:56:39;31.33;;;11.60;;
13571;SDS011;6857;53.484;10.216;2022-12-26T01:59:07;43.37;;;11.53;;
13571;SDS011;6857;53.484;10.216;2022-12-26T02:01:34;37.90;;;11.73;;
13571;SDS011;6857;53.484;10.216;2022-12-26T02:04:03;27.77;;;11.17;;
13571;SDS011;6857;53.484;10.216;2022-12-26T02:06:50;25.67;;;11.13;;
13571;SDS011;6857;53.484;10.216;2022-12-26T02:09:16;35.00;;;12.03;;
13571;SDS011;6857;53.484;10.216;2022-12-26T02:11:43;32.33;;;11.60;;
13571;SDS011;6857;53.484;10.216;2022-12-26T02:14:11;47.43;;;11.73;;
13571;SDS011;6857;53.484;10.216;2022-12-26T02:16:37;53.10;;;12.50;;
13571;SDS011;6857;53.484;10.216;2022-12-26T02:19:03;40.03;;;12.03;;
13571;SDS011;6857;53.484;10.216;2022-12-26T02:29:13;30.03;;;11.00;;
13571;SDS011;6857;53.484;10.216;2022-12-26T02:31:45;31.77;;;11.57;;
13571;SDS011;6857;53.484;10.216;2022-12-26T02:34:14;42.63;;;11.87;;
13571;SDS011;6857;53.484;10.216;2022-12-26T02:36:45;22.20;;;10.77;;
13571;SDS011;6857;53.484;10.216;2022-12-26T02:39:21;36.97;;;11.37;;
13571;SDS011;6857;53.484;10.216;2022-12-26T02:44:20;35.80;;;12.13;;
13571;SDS011;6857;53.484;10.216;2022-12-26T02:47:10;29.27;;;10.87;;
13571;SDS011;6857;53.484;10.216;2022-12-26T02:52:57;46.27;;;12.03;;
13571;SDS011;6857;53.484;10.216;2022-12-26T02:55:37;49.43;;;11.33;;
13571;SDS011;6857;53.484;10.216;2022-12-26T02:58:28;35.93;;;10.40;;
13571;SDS011;6857;53.484;10.216;2022-12-26T03:01:18;33.17;;;11.60;;
13571;SDS011;6857;53.484;10.216;2022-12-26T03:04:05;27.30;;;11.03;;
13571;SDS011;6857;53.484;10.216;2022-12-26T03:06:53;25.57;;;10.57;;
13571;SDS011;6857;53.484;10.216;2022-12-26T03:09:39;23.63;;;9.70;;
13571;SDS011;6857;53.484;10.216;2022-12-26T03:12:38;26.00;;;10.40;;
13571;SDS011;6857;53.484;10.216;2022-12-26T03:15:24;23.63;;;10.23;;
13571;SDS011;6857;53.484;10.216;2022-12-26T03:17:53;24.13;;;9.33;;
13571;SDS011;6857;53.484;10.216;2022-12-26T03:20:31;22.07;;;9.37;;
13571;SDS011;6857;53.484;10.216;2022-12-26T03:22:59;23.00;;;9.60;;
13571;SDS011;6857;53.484;10.216;2022-12-26T03:28:10;27.23;;;9.53;;
13571;SDS011;6857;53.484;10.216;2022-12-26T03:30:36;24.67;;;10.33;;
13571;SDS011;6857;53.484;10.216;2022-12-26T03:33:15;25.80;;;10.17;;
13571;SDS011;6857;53.484;10.216;2022-12-26T03:36:00;24.83;;;10.00;;
13571;SDS011;6857;53.484;10.216;2022-12-26T03:41:24;24.47;;;10.10;;
13571;SDS011;6857;53.484;10.216;2022-12-26T03:44:15;27.57;;;10.30;;
13571;SDS011;6857;53.484;10.216;2022-12-26T03:47:14;36.07;;;10.57;;
13571;SDS011;6857;53.484;10.216;2022-12-26T03:50:02;26.50;;;10.23;;
13571;SDS011;6857;53.484;10.216;2022-12-26T03:52:56;76.67;;;11.63;;
13571;SDS011;6857;53.484;10.216;2022-12-26T03:55:44;62.40;;;12.27;;
13571;SDS011;6857;53.484;10.216;2022-12-26T03:58:49;36.80;;;10.93;;
13571;SDS011;6857;53.484;10.216;2022-12-26T04:01:37;36.53;;;11.40;;
13571;SDS011;6857;53.484;10.216;2022-12-26T04:04:23;35.03;;;10.07;;
13571;SDS011;6857;53.484;10.216;2022-12-26T04:07:13;45.53;;;10.67;;
13571;SDS011;6857;53.484;10.216;2022-12-26T04:10:00;43.37;;;10.70;;
13571;SDS011;6857;53.484;10.216;2022-12-26T04:12:46;53.33;;;10.73;;
13571;SDS011;6857;53.484;10.216;2022-12-26T04:15:37;45.53;;;12.27;;
13571;SDS011;6857;53.484;10.216;2022-12-26T04:18:33;58.10;;;13.53;;
13571;SDS011;6857;53.484;10.216;2022-12-26T04:21:21;63.87;;;12.87;;
13571;SDS011;6857;53.484;10.216;2022-12-26T04:24:08;38.80;;;11.77;;
13571;SDS011;6857;53.484;10.216;2022-12-26T04:26:55;32.83;;;11.97;;
13571;SDS011;6857;53.484;10.216;2022-12-26T04:29:42;46.67;;;12.47;;
13571;SDS011;6857;53.484;10.216;2022-12-26T04:35:17;43.90;;;14.63;;
13571;SDS011;6857;53.484;10.216;2022-12-26T04:38:03;41.37;;;14.47;;
13571;SDS011;6857;53.484;10.216;2022-12-26T04:40:53;36.60;;;13.37;;
13571;SDS011;6857;53.484;10.216;2022-12-26T04:43:39;35.57;;;13.83;;
13571;SDS011;6857;53.484;10.216;2022-12-26T04:46:25;34.67;;;13.90;;
13571;SDS011;6857;53.484;10.216;2022-12-26T04:48:52;38.13;;;14.83;;
13571;SDS011;6857;53.484;10.216;2022-12-26T04:51:37;34.33;;;13.00;;
13571;SDS011;6857;53.484;10.216;2022-12-26T04:54:04;34.10;;;13.90;;
13571;SDS011;6857;53.484;10.216;2022-12-26T04:56:30;31.73;;;12.23;;
13571;SDS011;6857;53.484;10.216;2022-12-26T04:58:56;36.30;;;13.47;;
13571;SDS011;6857;53.484;10.216;2022-12-26T05:01:23;37.53;;;13.57;;
13571;SDS011;6857;53.484;10.216;2022-12-26T05:04:11;30.83;;;12.10;;
13571;SDS011;6857;53.484;10.216;2022-12-26T05:06:56;38.10;;;12.97;;
13571;SDS011;6857;53.484;10.216;2022-12-26T05:09:41;37.17;;;13.67;;
13571;SDS011;6857;53.484;10.216;2022-12-26T05:12:08;31.17;;;12.97;;
13571;SDS011;6857;53.484;10.216;2022-12-26T05:14:34;29.40;;;11.43;;
13571;SDS011;6857;53.484;10.216;2022-12-26T05:17:01;33.17;;;13.27;;
13571;SDS011;6857;53.484;10.216;2022-12-26T05:19:46;35.80;;;12.53;;
13571;SDS011;6857;53.484;10.216;2022-12-26T05:22:31;31.20;;;12.17;;
13571;SDS011;6857;53.484;10.216;2022-12-26T05:25:21;36.00;;;12.13;;
13571;SDS011;6857;53.484;10.216;2022-12-26T05:28:07;28.00;;;11.43;;
13571;SDS011;6857;53.484;10.216;2022-12-26T05:30:53;27.27;;;11.87;;
13571;SDS011;6857;53.484;10.216;2022-12-26T05:33:19;28.57;;;11.93;;
13571;SDS011;6857;53.484;10.216;2022-12-26T05:36:03;32.00;;;12.73;;
13571;SDS011;6857;53.484;10.216;2022-12-26T05:38:29;27.83;;;12.33;;
13571;SDS011;6857;53.484;10.216;2022-12-26T05:40:55;27.07;;;12.40;;
13571;SDS011;6857;53.484;10.216;2022-12-26T05:43:21;28.23;;;12.37;;
13571;SDS011;6857;53.484;10.216;2022-12-26T05:45:48;31.03;;;13.47;;
13571;SDS011;6857;53.484;10.216;2022-12-26T05:48:14;29.23;;;12.27;;
13571;SDS011;6857;53.484;10.216;2022-12-26T05:50:39;30.27;;;12.43;;
13571;SDS011;6857;53.484;10.216;2022-12-26T05:53:05;31.37;;;12.07;;
13571;SDS011;6857;53.484;10.216;2022-12-26T05:55:31;28.90;;;12.07;;
13571;SDS011;6857;53.484;10.216;2022-12-26T05:58:00;28.77;;;12.77;;
13571;SDS011;6857;53.484;10.216;2022-12-26T06:00:27;28.53;;;12.33;;
13571;SDS011;6857;53.484;10.216;2022-12-26T06:02:54;29.83;;;13.13;;
13571;SDS011;6857;53.484;10.216;2022-12-26T06:05:20;29.20;;;13.00;;
13571;SDS011;6857;53.484;10.216;2022-12-26T06:07:46;30.03;;;13.00;;
13571;SDS011;6857;53.484;10.216;2022-12-26T06:10:12;32.23;;;13.30;;
13571;SDS011;6857;53.484;10.216;2022-12-26T06:12:38;26.87;;;12.97;;
13571;SDS011;6857;53.484;10.216;2022-12-26T06:15:04;33.47;;;14.50;;
13571;SDS011;6857;53.484;10.216;2022-12-26T06:17:30;26.27;;;12.43;;
13571;SDS011;6857;53.484;10.216;2022-12-26T06:19:56;26.50;;;12.37;;
13571;SDS011;6857;53.484;10.216;2022-12-26T06:22:22;29.03;;;12.53;;
13571;SDS011;6857;53.484;10.216;2022-12-26T06:24:48;27.03;;;11.67;;
13571;SDS011;6857;53.484;10.216;2022-12-26T06:27:14;29.20;;;12.67;;
13571;SDS011;6857;53.484;10.216;2022-12-26T06:29:40;24.67;;;11.57;;
13571;SDS011;6857;53.484;10.216;2022-12-26T06:32:06;24.60;;;11.47;;
13571;SDS011;6857;53.484;10.216;2022-12-26T06:34:32;21.83;;;11.33;;
13571;SDS011;6857;53.484;10.216;2022-12-26T06:36:58;22.37;;;10.93;;
13571;SDS011;6857;53.484;10.216;2022-12-26T06:39:24;19.77;;;10.50;;
13571;SDS011;6857;53.484;10.216;2022-12-26T06:41:50;19.30;;;10.23;;
13571;SDS011;6857;53.484;10.216;2022-12-26T06:44:16;16.77;;;9.27;;
13571;SDS011;6857;53.484;10.216;2022-12-26T06:46:42;17.63;;;9.80;;
13571;SDS011;6857;53.484;10.216;2022-12-26T06:49:07;18.90;;;9.77;;
13571;SDS011;6857;53.484;10.216;2022-12-26T06:51:33;15.63;;;9.00;;
13571;SDS011;6857;53.484;10.216;2022-12-26T06:54:00;14.33;;;8.80;;
13571;SDS011;6857;53.484;10.216;2022-12-26T06:56:26;13.43;;;8.63;;
13571;SDS011;6857;53.484;10.216;2022-12-26T06:58:53;15.27;;;9.20;;
13571;SDS011;6857;53.484;10.216;2022-12-26T07:01:19;13.83;;;8.47;;
13571;SDS011;6857;53.484;10.216;2022-12-26T07:03:46;14.23;;;8.27;;
13571;SDS011;6857;53.484;10.216;2022-12-26T07:06:15;14.53;;;9.07;;
13571;SDS011;6857;53.484;10.216;2022-12-26T07:08:43;12.37;;;8.90;;
13571;SDS011;6857;53.484;10.216;2022-12-26T07:11:16;14.37;;;9.30;;
13571;SDS011;6857;53.484;10.216;2022-12-26T07:13:42;14.73;;;9.23;;
13571;SDS011;6857;53.484;10.216;2022-12-26T07:16:08;14.37;;;9.57;;
13571;SDS011;6857;53.484;10.216;2022-12-26T07:18:35;12.13;;;8.70;;
13571;SDS011;6857;53.484;10.216;2022-12-26T07:21:04;15.57;;;8.93;;
13571;SDS011;6857;53.484;10.216;2022-12-26T07:23:30;12.70;;;8.90;;
13571;SDS011;6857;53.484;10.216;2022-12-26T07:25:57;11.07;;;7.80;;
13571;SDS011;6857;53.484;10.216;2022-12-26T07:28:23;12.30;;;8.63;;
13571;SDS011;6857;53.484;10.216;2022-12-26T07:30:49;11.67;;;8.93;;
13571;SDS011;6857;53.484;10.216;2022-12-26T07:33:15;11.93;;;8.50;;
13571;SDS011;6857;53.484;10.216;2022-12-26T07:35:41;12.27;;;8.13;;
13571;SDS011;6857;53.484;10.216;2022-12-26T07:38:07;12.00;;;8.50;;
13571;SDS011;6857;53.484;10.216;2022-12-26T07:40:33;13.03;;;8.43;;
13571;SDS011;6857;53.484;10.216;2022-12-26T07:42:59;12.73;;;8.47;;
13571;SDS011;6857;53.484;10.216;2022-12-26T07:45:25;14.77;;;9.27;;
13571;SDS011;6857;53.484;10.216;2022-12-26T07:47:52;15.57;;;9.53;;
13571;SDS011;6857;53.484;10.216;2022-12-26T07:50:18;17.03;;;10.43;;
13571;SDS011;6857;53.484;10.216;2022-12-26T07:52:44;18.17;;;10.97;;
13571;SDS011;6857;53.484;10.216;2022-12-26T07:55:10;19.13;;;11.77;;
13571;SDS011;6857;53.484;10.216;2022-12-26T07:57:35;21.43;;;12.77;;
13571;SDS011;6857;53.484;10.216;2022-12-26T08:00:02;24.20;;;13.70;;
13571;SDS011;6857;53.484;10.216;2022-12-26T08:02:28;21.67;;;13.03;;
13571;SDS011;6857;53.484;10.216;2022-12-26T08:04:54;21.53;;;13.97;;
13571;SDS011;6857;53.484;10.216;2022-12-26T08:07:20;23.57;;;14.70;;
13571;SDS011;6857;53.484;10.216;2022-12-26T08:09:47;23.57;;;14.80;;
13571;SDS011;6857;53.484;10.216;2022-12-26T08:12:13;24.93;;;15.10;;
13571;SDS011;6857;53.484;10.216;2022-12-26T08:14:39;22.63;;;15.33;;
13571;SDS011;6857;53.484;10.216;2022-12-26T08:17:05;25.20;;;15.00;;
13571;SDS011;6857;53.484;10.216;2022-12-26T08:19:31;22.97;;;14.63;;
13571;SDS011;6857;53.484;10.216;2022-12-26T08:21:57;23.97;;;15.43;;
13571;SDS011;6857;53.484;10.216;2022-12-26T08:24:23;24.20;;;15.40;;
13571;SDS011;6857;53.484;10.216;2022-12-26T08:26:49;25.53;;;15.67;;
13571;SDS011;6857;53.484;10.216;2022-12-26T08:29:15;23.77;;;15.10;;
13571;SDS011;6857;53.484;10.216;2022-12-26T08:31:41;22.87;;;15.03;;
13571;SDS011;6857;53.484;10.216;2022-12-26T08:34:07;27.43;;;15.80;;
13571;SDS011;6857;53.484;10.216;2022-12-26T08:36:33;22.67;;;15.37;;
13571;SDS011;6857;53.484;10.216;2022-12-26T08:39:00;22.40;;;14.53;;
13571;SDS011;6857;53.484;10.216;2022-12-26T08:41:26;25.40;;;16.33;;
13571;SDS011;6857;53.484;10.216;2022-12-26T08:43:52;23.37;;;14.97;;
13571;SDS011;6857;53.484;10.216;2022-12-26T08:46:19;24.53;;;15.03;;
13571;SDS011;6857;53.484;10.216;2022-12-26T08:48:45;25.40;;;16.47;;
13571;SDS011;6857;53.484;10.216;2022-12-26T08:51:12;26.07;;;16.37;;
13571;SDS011;6857;53.484;10.216;2022-12-26T08:53:39;26.63;;;17.07;;
13571;SDS011;6857;53.484;10.216;2022-12-26T08:56:05;26.77;;;17.30;;
13571;SDS011;6857;53.484;10.216;2022-12-26T08:58:32;24.97;;;16.73;;
13571;SDS011;6857;53.484;10.216;2022-12-26T09:01:06;27.37;;;16.97;;
13571;SDS011;6857;53.484;10.216;2022-12-26T09:03:32;29.80;;;17.67;;
13571;SDS011;6857;53.484;10.216;2022-12-26T09:05:58;27.20;;;16.80;;
13571;SDS011;6857;53.484;10.216;2022-12-26T09:08:24;28.80;;;17.73;;
13571;SDS011;6857;53.484;10.216;2022-12-26T09:10:50;28.40;;;16.70;;
13571;SDS011;6857;53.484;10.216;2022-12-26T09:13:16;27.30;;;17.23;;
13571;SDS011;6857;53.484;10.216;2022-12-26T09:15:44;27.50;;;17.53;;
13571;SDS011;6857;53.484;10.216;2022-12-26T09:18:10;27.50;;;16.40;;
13571;SDS011;6857;53.484;10.216;2022-12-26T09:20:36;27.77;;;16.93;;
13571;SDS011;6857;53.484;10.216;2022-12-26T09:23:02;27.17;;;16.97;;
13571;SDS011;6857;53.484;10.216;2022-12-26T09:25:28;27.63;;;16.63;;
13571;SDS011;6857;53.484;10.216;2022-12-26T09:27:54;26.50;;;16.73;;
13571;SDS011;6857;53.484;10.216;2022-12-26T09:30:20;24.17;;;15.80;;
13571;SDS011;6857;53.484;10.216;2022-12-26T09:32:46;25.13;;;15.27;;
13571;SDS011;6857;53.484;10.216;2022-12-26T09:35:12;24.90;;;15.93;;
13571;SDS011;6857;53.484;10.216;2022-12-26T09:37:38;25.40;;;16.13;;
13571;SDS011;6857;53.484;10.216;2022-12-26T09:40:04;23.03;;;14.83;;
13571;SDS011;6857;53.484;10.216;2022-12-26T09:42:53;22.53;;;14.37;;
13571;SDS011;6857;53.484;10.216;2022-12-26T09:45:25;22.83;;;14.23;;
13571;SDS011;6857;53.484;10.216;2022-12-26T09:47:56;21.67;;;14.20;;
13571;SDS011;6857;53.484;10.216;2022-12-26T09:52:57;23.10;;;14.77;;
13571;SDS011;6857;53.484;10.216;2022-12-26T09:55:43;21.50;;;14.13;;
13571;SDS011;6857;53.484;10.216;2022-12-26T10:00:44;22.10;;;13.23;;
13571;SDS011;6857;53.484;10.216;2022-12-26T10:03:13;22.50;;;14.00;;
13571;SDS011;6857;53.484;10.216;2022-12-26T10:05:41;23.77;;;13.20;;
13571;SDS011;6857;53.484;10.216;2022-12-26T10:10:37;17.93;;;11.90;;
13571;SDS011;6857;53.484;10.216;2022-12-26T10:15:52;21.53;;;13.40;;
13571;SDS011;6857;53.484;10.216;2022-12-26T10:23:50;19.57;;;12.33;;
13571;SDS011;6857;53.484;10.216;2022-12-26T10:26:21;16.80;;;11.47;;
13571;SDS011;6857;53.484;10.216;2022-12-26T10:31:21;16.93;;;11.10;;
13571;SDS011;6857;53.484;10.216;2022-12-26T10:33:58;16.20;;;11.03;;
13571;SDS011;6857;53.484;10.216;2022-12-26T10:36:38;17.20;;;11.30;;
13571;SDS011;6857;53.484;10.216;2022-12-26T10:39:09;17.87;;;12.07;;
13571;SDS011;6857;53.484;10.216;2022-12-26T10:41:39;17.13;;;11.17;;
13571;SDS011;6857;53.484;10.216;2022-12-26T10:44:09;16.80;;;11.50;;
13571;SDS011;6857;53.484;10.216;2022-12-26T10:49:09;15.20;;;10.40;;
13571;SDS011;6857;53.484;10.216;2022-12-26T10:51:35;16.13;;;10.93;;
13571;SDS011;6857;53.484;10.216;2022-12-26T10:54:02;16.80;;;12.00;;
13571;SDS011;6857;53.484;10.216;2022-12-26T10:56:29;17.47;;;11.23;;
13571;SDS011;6857;53.484;10.216;2022-12-26T10:58:59;16.33;;;11.27;;
13571;SDS011;6857;53.484;10.216;2022-12-26T11:01:31;16.77;;;11.20;;
13571;SDS011;6857;53.484;10.216;2022-12-26T11:03:59;18.03;;;11.73;;
13571;SDS011;6857;53.484;10.216;2022-12-26T11:06:59;18.80;;;11.93;;
13571;SDS011;6857;53.484;10.216;2022-12-26T11:12:36;17.40;;;11.90;;
13571;SDS011;6857;53.484;10.216;2022-12-26T11:17:44;19.20;;;10.87;;
13571;SDS011;6857;53.484;10.216;2022-12-26T11:22:37;16.10;;;10.53;;
13571;SDS011;6857;53.484;10.216;2022-12-26T11:27:36;16.23;;;10.93;;
13571;SDS011;6857;53.484;10.216;2022-12-26T11:32:41;17.40;;;10.50;;
13571;SDS011;6857;53.484;10.216;2022-12-26T11:35:15;15.27;;;10.07;;
13571;SDS011;6857;53.484;10.216;2022-12-26T11:37:41;17.13;;;10.90;;
13571;SDS011;6857;53.484;10.216;2022-12-26T11:40:15;14.50;;;9.97;;
13571;SDS011;6857;53.484;10.216;2022-12-26T11:42:42;17.27;;;10.50;;
13571;SDS011;6857;53.484;10.216;2022-12-26T11:45:09;15.37;;;9.53;;
13571;SDS011;6857;53.484;10.216;2022-12-26T11:47:36;15.17;;;9.80;;
13571;SDS011;6857;53.484;10.216;2022-12-26T11:50:06;14.33;;;9.50;;
13571;SDS011;6857;53.484;10.216;2022-12-26T11:58:00;15.47;;;9.13;;
13571;SDS011;6857;53.484;10.216;2022-12-26T12:00:30;16.50;;;9.43;;
13571;SDS011;6857;53.484;10.216;2022-12-26T12:02:57;12.87;;;8.60;;
13571;SDS011;6857;53.484;10.216;2022-12-26T12:08:04;12.73;;;8.43;;
13571;SDS011;6857;53.484;10.216;2022-12-26T12:15:44;10.83;;;7.70;;
13571;SDS011;6857;53.484;10.216;2022-12-26T12:18:19;13.63;;;8.67;;
13571;SDS011;6857;53.484;10.216;2022-12-26T12:20:54;15.23;;;9.07;;
13571;SDS011;6857;53.484;10.216;2022-12-26T12:23:28;12.87;;;8.53;;
13571;SDS011;6857;53.484;10.216;2022-12-26T12:31:15;15.17;;;8.63;;
13571;SDS011;6857;53.484;10.216;2022-12-26T12:36:10;13.63;;;8.27;;
13571;SDS011;6857;53.484;10.216;2022-12-26T12:54:40;9.03;;;7.33;;
13571;SDS011;6857;53.484;10.216;2022-12-26T12:57:19;10.13;;;6.57;;
13571;SDS011;6857;53.484;10.216;2022-12-26T13:00:00;11.23;;;7.43;;
13571;SDS011;6857;53.484;10.216;2022-12-26T13:05:04;10.37;;;6.50;;
13571;SDS011;6857;53.484;10.216;2022-12-26T13:07:32;12.10;;;7.00;;
13571;SDS011;6857;53.484;10.216;2022-12-26T13:10:01;13.67;;;7.27;;
13571;SDS011;6857;53.484;10.216;2022-12-26T13:12:31;8.37;;;6.43;;
13571;SDS011;6857;53.484;10.216;2022-12-26T13:15:00;9.40;;;6.70;;
13571;SDS011;6857;53.484;10.216;2022-12-26T13:17:35;9.57;;;6.30;;
13571;SDS011;6857;53.484;10.216;2022-12-26T13:20:22;10.20;;;6.67;;
13571;SDS011;6857;53.484;10.216;2022-12-26T13:22:52;8.63;;;6.87;;
13571;SDS011;6857;53.484;10.216;2022-12-26T13:25:43;10.30;;;6.20;;
13571;SDS011;6857;53.484;10.216;2022-12-26T13:28:12;12.47;;;6.13;;
13571;SDS011;6857;53.484;10.216;2022-12-26T13:30:40;8.77;;;6.03;;
13571;SDS011;6857;53.484;10.216;2022-12-26T13:33:10;9.07;;;5.10;;
13571;SDS011;6857;53.484;10.216;2022-12-26T13:35:53;8.27;;;4.13;;
13571;SDS011;6857;53.484;10.216;2022-12-26T13:38:20;6.60;;;3.33;;
13571;SDS011;6857;53.484;10.216;2022-12-26T13:41:05;6.23;;;3.10;;
13571;SDS011;6857;53.484;10.216;2022-12-26T13:44:03;3.23;;;2.40;;
13571;SDS011;6857;53.484;10.216;2022-12-26T13:46:34;6.33;;;2.60;;
13571;SDS011;6857;53.484;10.216;2022-12-26T13:49:00;3.93;;;2.50;;
13571;SDS011;6857;53.484;10.216;2022-12-26T13:54:25;3.50;;;0.80;;
13571;SDS011;6857;53.484;10.216;2022-12-26T13:57:14;3.13;;;0.90;;
13571;SDS011;6857;53.484;10.216;2022-12-26T13:59:46;3.53;;;1.00;;
13571;SDS011;6857;53.484;10.216;2022-12-26T14:04:46;2.40;;;0.70;;
13571;SDS011;6857;53.484;10.216;2022-12-26T14:07:27;2.87;;;0.80;;
13571;SDS011;6857;53.484;10.216;2022-12-26T14:12:36;3.00;;;0.60;;
13571;SDS011;6857;53.484;10.216;2022-12-26T14:23:18;2.30;;;0.70;;
13571;SDS011;6857;53.484;10.216;2022-12-26T14:28:24;3.83;;;0.90;;
13571;SDS011;6857;53.484;10.216;2022-12-26T14:33:38;3.17;;;0.80;;
13571;SDS011;6857;53.484;10.216;2022-12-26T14:36:10;1.87;;;0.80;;
13571;SDS011;6857;53.484;10.216;2022-12-26T14:41:23;3.00;;;0.90;;
13571;SDS011;6857;53.484;10.216;2022-12-26T14:44:15;4.17;;;1.27;;
13571;SDS011;6857;53.484;10.216;2022-12-26T14:51:52;4.73;;;1.10;;
13571;SDS011;6857;53.484;10.216;2022-12-26T14:56:49;6.10;;;0.97;;
13571;SDS011;6857;53.484;10.216;2022-12-26T15:01:42;4.77;;;1.13;;
13571;SDS011;6857;53.484;10.216;2022-12-26T15:06:51;5.30;;;1.40;;
13571;SDS011;6857;53.484;10.216;2022-12-26T15:12:24;6.17;;;1.23;;
13571;SDS011;6857;53.484;10.216;2022-12-26T15:25:34;3.97;;;1.00;;
13571;SDS011;6857;53.484;10.216;2022-12-26T15:28:16;6.00;;;1.27;;
13571;SDS011;6857;53.484;10.216;2022-12-26T15:33:34;6.33;;;1.40;;
13571;SDS011;6857;53.484;10.216;2022-12-26T15:36:23;5.27;;;1.57;;
13571;SDS011;6857;53.484;10.216;2022-12-26T15:38:56;12.40;;;1.63;;
13571;SDS011;6857;53.484;10.216;2022-12-26T15:43:56;7.63;;;1.60;;
13571;SDS011;6857;53.484;10.216;2022-12-26T15:46:30;12.20;;;1.77;;
13571;SDS011;6857;53.484;10.216;2022-12-26T15:49:07;6.87;;;1.60;;
13571;SDS011;6857;53.484;10.216;2022-12-26T16:05:16;15.47;;;2.20;;
13571;SDS011;6857;53.484;10.216;2022-12-26T16:08:03;7.03;;;1.67;;
13571;SDS011;6857;53.484;10.216;2022-12-26T16:10:33;8.80;;;1.77;;
13571;SDS011;6857;53.484;10.216;2022-12-26T16:13:04;7.83;;;1.73;;
13571;SDS011;6857;53.484;10.216;2022-12-26T16:15:31;10.13;;;2.00;;
13571;SDS011;6857;53.484;10.216;2022-12-26T16:18:14;6.53;;;1.63;;
13571;SDS011;6857;53.484;10.216;2022-12-26T16:20:41;10.43;;;2.40;;
13571;SDS011;6857;53.484;10.216;2022-12-26T16:23:27;13.67;;;2.30;;
13571;SDS011;6857;53.484;10.216;2022-12-26T16:25:56;10.10;;;2.10;;
13571;SDS011;6857;53.484;10.216;2022-12-26T16:28:29;7.07;;;1.73;;
13571;SDS011;6857;53.484;10.216;2022-12-26T16:30:56;8.93;;;1.80;;
13571;SDS011;6857;53.484;10.216;2022-12-26T16:33:22;5.87;;;1.80;;
13571;SDS011;6857;53.484;10.216;2022-12-26T16:35:49;11.50;;;2.07;;
13571;SDS011;6857;53.484;10.216;2022-12-26T16:38:16;9.47;;;1.90;;
13571;SDS011;6857;53.484;10.216;2022-12-26T16:40:47;8.43;;;2.40;;
13571;SDS011;6857;53.484;10.216;2022-12-26T16:45:42;11.40;;;1.77;;
13571;SDS011;6857;53.484;10.216;2022-12-26T16:48:10;8.60;;;2.10;;
13571;SDS011;6857;53.484;10.216;2022-12-26T16:56:23;9.10;;;3.00;;
13571;SDS011;6857;53.484;10.216;2022-12-26T16:59:03;9.87;;;2.73;;
13571;SDS011;6857;53.484;10.216;2022-12-26T17:01:29;4.63;;;1.67;;
13571;SDS011;6857;53.484;10.216;2022-12-26T17:04:03;9.07;;;2.40;;
13571;SDS011;6857;53.484;10.216;2022-12-26T17:06:32;7.67;;;2.20;;
13571;SDS011;6857;53.484;10.216;2022-12-26T17:09:03;9.43;;;2.17;;
13571;SDS011;6857;53.484;10.216;2022-12-26T17:11:30;11.07;;;2.07;;
13571;SDS011;6857;53.484;10.216;2022-12-26T17:13:58;9.53;;;2.80;;
13571;SDS011;6857;53.484;10.216;2022-12-26T17:16:25;7.87;;;2.60;;
13571;SDS011;6857;53.484;10.216;2022-12-26T17:18:54;14.47;;;4.77;;
13571;SDS011;6857;53.484;10.216;2022-12-26T17:21:22;16.13;;;3.60;;
13571;SDS011;6857;53.484;10.216;2022-12-26T17:23:59;10.30;;;2.87;;
13571;SDS011;6857;53.484;10.216;2022-12-26T17:26:28;9.33;;;3.00;;
13571;SDS011;6857;53.484;10.216;2022-12-26T17:28:54;12.83;;;4.00;;
13571;SDS011;6857;53.484;10.216;2022-12-26T17:33:54;13.77;;;4.23;;
13571;SDS011;6857;53.484;10.216;2022-12-26T17:36:20;14.97;;;3.17;;
13571;SDS011;6857;53.484;10.216;2022-12-26T17:38:47;9.13;;;3.10;;
13571;SDS011;6857;53.484;10.216;2022-12-26T17:41:14;15.43;;;2.73;;
13571;SDS011;6857;53.484;10.216;2022-12-26T17:43:41;12.10;;;3.23;;
13571;SDS011;6857;53.484;10.216;2022-12-26T17:46:08;11.80;;;3.07;;
13571;SDS011;6857;53.484;10.216;2022-12-26T17:48:37;15.70;;;4.83;;